Time;durP1;ratioP1;P1;durP2;ratioP2;P2;SDS_P1;SDS_P2;PMS_P1;PMS_P2;Temp;Humidity;BMP_temperature;BMP_pressure;BME280_temperature;BME280_humidity;BME280_pressure;Samples;Min_cycle;Max_cycle;Signal;HPM_P1;HPM_P2
2024/03/02 00:00:09;;;;;;;2.92;1.23;;;;;;;;;;5070083;28;20056;-72
2024/03/02 00:02:45;;;;;;;2.63;1.30;;;;;;;;;;5075818;28;20041;-72
2024/03/02 00:05:12;;;;;;;2.47;1.40;;;;;;;;;;5059637;28;20052;-72
2024/03/02 00:07:42;;;;;;;2.13;1.27;;;;;;;;;;5085190;28;20056;-71
2024/03/02 00:10:12;;;;;;;2.22;1.25;;;;;;;;;;5072123;28;20059;-72
2024/03/02 00:12:39;;;;;;;3.20;1.60;;;;;;;;;;5084049;28;20528;-71
2024/03/02 00:15:13;;;;;;;4.18;1.35;;;;;;;;;;5085776;28;20048;-71
2024/03/02 00:17:40;;;;;;;2.33;1.20;;;;;;;;;;5078650;28;20147;-71
2024/03/02 00:20:09;;;;;;;2.22;1.30;;;;;;;;;;5079168;28;20052;-72
2024/03/02 00:22:37;;;;;;;2.70;1.30;;;;;;;;;;5082644;28;20056;-72
2024/03/02 00:25:04;;;;;;;2.67;1.20;;;;;;;;;;5087390;28;20421;-71
2024/03/02 00:27:30;;;;;;;3.55;1.60;;;;;;;;;;5064883;28;20603;-71
2024/03/02 00:29:56;;;;;;;2.70;1.30;;;;;;;;;;5076289;28;20139;-70
2024/03/02 00:32:24;;;;;;;3.70;1.38;;;;;;;;;;5079182;28;20154;-73
2024/03/02 00:34:51;;;;;;;2.70;1.13;;;;;;;;;;5057357;28;20058;-72
2024/03/02 00:37:18;;;;;;;3.20;1.27;;;;;;;;;;5087062;28;20044;-71
2024/03/02 00:39:48;;;;;;;4.80;1.60;;;;;;;;;;5068498;28;20060;-72
2024/03/02 00:42:15;;;;;;;4.97;1.77;;;;;;;;;;5082254;28;20062;-71
2024/03/02 00:44:41;;;;;;;4.28;1.85;;;;;;;;;;5079198;28;20063;-72
2024/03/02 00:47:08;;;;;;;3.40;1.50;;;;;;;;;;5073100;28;20499;-71
2024/03/02 00:49:34;;;;;;;2.28;1.27;;;;;;;;;;5079136;28;20052;-72
2024/03/02 00:52:00;;;;;;;2.30;1.30;;;;;;;;;;5082066;28;20082;-72
2024/03/02 00:54:28;;;;;;;3.90;1.60;;;;;;;;;;5077449;28;20592;-72
2024/03/02 00:56:55;;;;;;;3.25;1.30;;;;;;;;;;5076674;28;20102;-71
2024/03/02 00:59:23;;;;;;;2.85;1.45;;;;;;;;;;5059906;28;20135;-72
2024/03/02 01:01:49;;;;;;;2.92;1.42;;;;;;;;;;5078053;28;20048;-72
2024/03/02 01:04:16;;;;;;;1.77;1.10;;;;;;;;;;5071394;28;20056;-72
2024/03/02 01:06:43;;;;;;;3.30;1.45;;;;;;;;;;5066904;28;20108;-72
2024/03/02 01:09:09;;;;;;;3.25;1.38;;;;;;;;;;5069874;28;20041;-72
2024/03/02 01:11:36;;;;;;;3.58;1.33;;;;;;;;;;5073421;28;20055;-71
2024/03/02 01:14:02;;;;;;;5.10;1.60;;;;;;;;;;5071912;28;20714;-73
2024/03/02 01:16:29;;;;;;;2.65;1.00;;;;;;;;;;5067831;28;20090;-73
2024/03/02 01:18:56;;;;;;;4.07;1.40;;;;;;;;;;5082282;28;20127;-71
2024/03/02 01:21:22;;;;;;;2.85;1.20;;;;;;;;;;5073677;28;20047;-72
2024/03/02 01:23:49;;;;;;;3.78;1.20;;;;;;;;;;5075501;28;20044;-72
2024/03/02 01:26:15;;;;;;;4.00;1.20;;;;;;;;;;5078654;28;20539;-72
2024/03/02 01:28:42;;;;;;;3.20;1.25;;;;;;;;;;5069568;28;20625;-71
2024/03/02 01:31:08;;;;;;;1.75;1.05;;;;;;;;;;5081479;28;20122;-72
2024/03/02 01:33:34;;;;;;;2.30;1.08;;;;;;;;;;5061252;28;20059;-71
2024/03/02 01:36:01;;;;;;;1.88;1.10;;;;;;;;;;5069276;28;20059;-72
2024/03/02 01:38:28;;;;;;;4.22;1.20;;;;;;;;;;5046080;28;20569;-74
2024/03/02 01:40:56;;;;;;;3.65;1.25;;;;;;;;;;5080615;28;20166;-72
2024/03/02 01:43:23;;;;;;;1.67;0.82;;;;;;;;;;5059578;28;20064;-71
2024/03/02 01:45:49;;;;;;;4.75;1.13;;;;;;;;;;5060222;28;20102;-71
2024/03/02 01:48:15;;;;;;;1.45;0.90;;;;;;;;;;5074928;28;20434;-71
2024/03/02 01:50:42;;;;;;;1.65;0.60;;;;;;;;;;5078923;28;20147;-72
2024/03/02 01:53:08;;;;;;;2.00;0.60;;;;;;;;;;5079098;28;20537;-71
2024/03/02 01:55:35;;;;;;;0.52;0.40;;;;;;;;;;5074322;28;20063;-71
2024/03/02 01:58:01;;;;;;;0.75;0.45;;;;;;;;;;5059528;28;20056;-72
2024/03/02 02:00:28;;;;;;;0.40;0.40;;;;;;;;;;5064472;28;20048;-73
2024/03/02 02:02:54;;;;;;;0.45;0.40;;;;;;;;;;5066868;28;20052;-71
2024/03/02 02:05:21;;;;;;;0.40;0.40;;;;;;;;;;5079470;28;20664;-71
2024/03/02 02:07:48;;;;;;;0.45;0.40;;;;;;;;;;5080026;28;20069;-72
2024/03/02 02:10:14;;;;;;;0.30;0.30;;;;;;;;;;5076224;28;20079;-73
2024/03/02 02:12:40;;;;;;;1.58;0.40;;;;;;;;;;5073583;28;20151;-72
2024/03/02 02:15:23;;;;;;;0.40;0.40;;;;;;;;;;5065762;28;20129;-72
2024/03/02 02:17:50;;;;;;;0.50;0.50;;;;;;;;;;5077085;28;20127;-73
2024/03/02 02:20:17;;;;;;;0.57;0.50;;;;;;;;;;5041624;28;20129;-72
2024/03/02 02:23:02;;;;;;;0.80;0.45;;;;;;;;;;5072270;28;20079;-72
2024/03/02 02:25:29;;;;;;;1.38;0.40;;;;;;;;;;5059095;28;20669;-72
2024/03/02 02:27:57;;;;;;;4.82;0.57;;;;;;;;;;5053623;28;20142;-72
2024/03/02 02:30:28;;;;;;;0.90;0.47;;;;;;;;;;5062499;28;20888;-72
2024/03/02 02:32:55;;;;;;;0.75;0.32;;;;;;;;;;5069579;28;20071;-73
2024/03/02 02:35:21;;;;;;;0.40;0.40;;;;;;;;;;5048541;28;20558;-72
2024/03/02 02:37:48;;;;;;;0.50;0.40;;;;;;;;;;5066380;28;21145;-72
2024/03/02 02:40:15;;;;;;;0.80;0.30;;;;;;;;;;5086356;28;20055;-72
2024/03/02 02:42:42;;;;;;;2.15;0.50;;;;;;;;;;5091074;28;20055;-71
2024/03/02 02:45:08;;;;;;;0.90;0.30;;;;;;;;;;5089098;28;20546;-72
2024/03/02 02:47:35;;;;;;;1.38;0.40;;;;;;;;;;5061970;28;20113;-71
2024/03/02 02:50:03;;;;;;;2.17;0.40;;;;;;;;;;5060783;28;20127;-71
2024/03/02 02:52:33;;;;;;;0.77;0.40;;;;;;;;;;5080384;28;20136;-71
2024/03/02 02:54:59;;;;;;;0.98;0.32;;;;;;;;;;5060853;28;20080;-72
2024/03/02 02:57:26;;;;;;;0.30;0.30;;;;;;;;;;5055649;28;20724;-72
2024/03/02 02:59:52;;;;;;;3.35;0.63;;;;;;;;;;5076023;28;20052;-72
2024/03/02 03:02:18;;;;;;;0.30;0.30;;;;;;;;;;5075462;28;20074;-73
2024/03/02 03:04:45;;;;;;;0.50;0.38;;;;;;;;;;5064014;28;20146;-72
2024/03/02 03:07:11;;;;;;;0.65;0.40;;;;;;;;;;5060121;28;20072;-72
2024/03/02 03:09:41;;;;;;;3.75;0.40;;;;;;;;;;5082108;28;20056;-72
2024/03/02 03:12:07;;;;;;;0.55;0.55;;;;;;;;;;5077003;28;20055;-73
2024/03/02 03:14:34;;;;;;;0.22;0.22;;;;;;;;;;5077076;28;20055;-72
2024/03/02 03:17:01;;;;;;;0.30;0.30;;;;;;;;;;5079140;28;20052;-72
2024/03/02 03:19:27;;;;;;;1.48;0.30;;;;;;;;;;5045012;28;20052;-72
2024/03/02 03:21:54;;;;;;;0.40;0.40;;;;;;;;;;5063006;28;20556;-72
2024/03/02 03:24:20;;;;;;;1.63;0.40;;;;;;;;;;5064671;28;20059;-72
2024/03/02 03:26:47;;;;;;;0.40;0.40;;;;;;;;;;5075091;28;20427;-73
2024/03/02 03:29:13;;;;;;;0.25;0.25;;;;;;;;;;5070731;28;20147;-73
2024/03/02 03:31:40;;;;;;;1.00;0.45;;;;;;;;;;5075392;28;20059;-73
2024/03/02 03:34:06;;;;;;;1.98;0.38;;;;;;;;;;5071021;28;20056;-73
2024/03/02 03:36:33;;;;;;;0.40;0.30;;;;;;;;;;5071536;28;20058;-73
2024/03/02 03:39:01;;;;;;;0.65;0.40;;;;;;;;;;5062902;28;20052;-73
2024/03/02 03:41:28;;;;;;;;;;;;;;;;;;5051317;28;20044;-74
2024/03/02 03:43:55;;;;;;;0.43;0.40;;;;;;;;;;5088326;28;19928;-74
2024/03/02 03:46:21;;;;;;;0.63;0.38;;;;;;;;;;5061699;28;20044;-73
2024/03/02 03:48:48;;;;;;;2.78;0.50;;;;;;;;;;5069698;28;20476;-74
2024/03/02 03:51:15;;;;;;;1.33;0.50;;;;;;;;;;5055935;28;20049;-73
2024/03/02 03:53:41;;;;;;;0.55;0.45;;;;;;;;;;4957087;28;3062921;-72
2024/03/02 03:56:07;;;;;;;0.45;0.43;;;;;;;;;;5070245;28;20048;-72
2024/03/02 03:58:34;;;;;;;1.65;0.40;;;;;;;;;;5071721;28;20142;-72
2024/03/02 04:01:00;;;;;;;0.40;0.40;;;;;;;;;;5076385;28;20045;-73
2024/03/02 04:03:27;;;;;;;0.40;0.40;;;;;;;;;;5069412;28;20084;-73
2024/03/02 04:05:53;;;;;;;1.88;0.70;;;;;;;;;;5075620;28;20134;-74
2024/03/02 04:08:19;;;;;;;1.75;0.40;;;;;;;;;;5069859;28;20147;-73
2024/03/02 04:10:46;;;;;;;0.47;0.45;;;;;;;;;;5069579;28;20154;-74
2024/03/02 04:13:13;;;;;;;0.57;0.30;;;;;;;;;;5044426;28;20055;-73
2024/03/02 04:15:40;;;;;;;0.73;0.43;;;;;;;;;;5071934;28;20117;-74
2024/03/02 04:18:06;;;;;;;1.17;0.50;;;;;;;;;;5066404;28;20794;-73
2024/03/02 04:20:33;;;;;;;2.10;0.40;;;;;;;;;;5072309;28;20048;-74
2024/03/02 04:22:59;;;;;;;1.63;0.47;;;;;;;;;;5073824;28;20047;-74
2024/03/02 04:25:25;;;;;;;0.90;0.50;;;;;;;;;;5076709;28;20072;-73
2024/03/02 04:27:52;;;;;;;0.40;0.40;;;;;;;;;;5067511;28;20062;-73
2024/03/02 04:30:18;;;;;;;0.30;0.30;;;;;;;;;;5049082;28;20062;-74
2024/03/02 04:32:46;;;;;;;0.90;0.40;;;;;;;;;;5060912;28;20041;-74
2024/03/02 04:35:13;;;;;;;0.52;0.40;;;;;;;;;;5066528;28;20040;-74
2024/03/02 04:37:40;;;;;;;0.40;0.40;;;;;;;;;;5068942;28;20051;-74
2024/03/02 04:40:08;;;;;;;1.25;0.47;;;;;;;;;;5063909;28;20432;-74
2024/03/02 04:42:34;;;;;;;0.50;0.50;;;;;;;;;;5075323;28;20719;-74
2024/03/02 04:45:01;;;;;;;3.30;0.80;;;;;;;;;;5071949;28;20059;-74
2024/03/02 04:47:27;;;;;;;0.85;0.57;;;;;;;;;;5064634;28;20052;-74
2024/03/02 04:49:54;;;;;;;0.60;0.40;;;;;;;;;;5059490;28;20559;-74
2024/03/02 04:52:20;;;;;;;0.70;0.40;;;;;;;;;;5068057;28;20748;-74
2024/03/02 04:57:31;;;;;;;0.60;0.40;;;;;;;;;;5079074;28;20086;-74
2024/03/02 04:59:58;;;;;;;0.73;0.30;;;;;;;;;;5073702;28;20053;-74
2024/03/02 05:02:24;;;;;;;1.90;0.60;;;;;;;;;;5081503;28;20052;-73
2024/03/02 05:04:51;;;;;;;1.50;0.60;;;;;;;;;;5070341;28;20167;-72
2024/03/02 05:07:17;;;;;;;0.68;0.50;;;;;;;;;;5076364;28;20064;-73
2024/03/02 05:09:44;;;;;;;0.93;0.60;;;;;;;;;;5056985;28;20516;-73
2024/03/02 05:14:56;;;;;;;1.48;0.50;;;;;;;;;;5083081;28;20109;-72
2024/03/02 05:17:22;;;;;;;0.63;0.60;;;;;;;;;;5080546;28;20477;-73
2024/03/02 05:19:48;;;;;;;0.93;0.50;;;;;;;;;;5067816;28;20758;-73
2024/03/02 05:22:15;;;;;;;1.35;0.60;;;;;;;;;;5074637;28;20510;-72
2024/03/02 05:24:41;;;;;;;2.47;0.63;;;;;;;;;;5057842;28;20045;-72
2024/03/02 05:27:08;;;;;;;0.95;0.50;;;;;;;;;;5076645;28;20059;-73
2024/03/02 05:29:34;;;;;;;2.75;0.45;;;;;;;;;;5076964;28;20485;-72
2024/03/02 05:32:00;;;;;;;2.85;0.50;;;;;;;;;;5079232;28;20056;-73
2024/03/02 05:34:27;;;;;;;1.52;0.50;;;;;;;;;;5079997;28;20056;-72
2024/03/02 05:36:53;;;;;;;1.13;0.50;;;;;;;;;;5059736;28;20120;-73
2024/03/02 05:39:20;;;;;;;1.75;0.55;;;;;;;;;;5043852;28;20475;-72
2024/03/02 05:41:46;;;;;;;1.65;0.40;;;;;;;;;;5064580;28;20427;-72
2024/03/02 05:44:15;;;;;;;0.45;0.45;;;;;;;;;;5072411;28;20056;-73
2024/03/02 05:46:41;;;;;;;2.05;0.43;;;;;;;;;;5071509;28;20102;-71
2024/03/02 05:49:09;;;;;;;1.70;0.45;;;;;;;;;;5079017;28;20483;-73
2024/03/02 05:51:36;;;;;;;3.50;0.60;;;;;;;;;;5081881;28;20532;-71
2024/03/02 05:54:02;;;;;;;2.33;0.60;;;;;;;;;;5071804;28;20049;-71
2024/03/02 05:56:29;;;;;;;1.58;0.47;;;;;;;;;;5067385;28;20468;-72
2024/03/02 05:59:14;;;;;;;1.25;0.63;;;;;;;;;;5067326;28;20059;-71
2024/03/02 06:01:41;;;;;;;3.72;0.40;;;;;;;;;;5082348;28;20059;-72
2024/03/02 06:04:08;;;;;;;2.03;0.50;;;;;;;;;;5071327;28;20084;-70
2024/03/02 06:06:34;;;;;;;1.23;0.50;;;;;;;;;;5070223;28;20040;-70
2024/03/02 06:09:02;;;;;;;0.45;0.40;;;;;;;;;;5067508;28;20057;-70
2024/03/02 06:11:29;;;;;;;1.77;0.40;;;;;;;;;;5074046;28;20534;-71
2024/03/02 06:13:55;;;;;;;1.60;0.47;;;;;;;;;;5089964;28;20063;-71
2024/03/02 06:16:22;;;;;;;1.52;0.60;;;;;;;;;;5073051;28;20048;-69
2024/03/02 06:18:48;;;;;;;3.30;0.60;;;;;;;;;;5086099;28;20080;-71
2024/03/02 06:21:14;;;;;;;2.30;0.50;;;;;;;;;;5064817;28;20111;-71
2024/03/02 06:23:41;;;;;;;1.85;0.45;;;;;;;;;;5066317;28;20122;-70
2024/03/02 06:26:07;;;;;;;1.25;0.40;;;;;;;;;;5049798;28;20056;-71
2024/03/02 06:28:34;;;;;;;0.75;0.45;;;;;;;;;;5074045;28;20036;-70
2024/03/02 06:31:01;;;;;;;1.73;0.50;;;;;;;;;;5056608;28;20079;-71
2024/03/02 06:33:28;;;;;;;1.17;0.63;;;;;;;;;;5076332;28;20047;-69
2024/03/02 06:35:55;;;;;;;0.90;0.50;;;;;;;;;;5068577;28;20625;-73
2024/03/02 06:38:21;;;;;;;1.30;0.60;;;;;;;;;;5066487;28;20044;-71
2024/03/02 06:40:47;;;;;;;1.27;0.38;;;;;;;;;;5084876;28;20052;-72
2024/03/02 06:43:14;;;;;;;1.33;0.63;;;;;;;;;;5069566;28;20056;-71
2024/03/02 06:45:40;;;;;;;1.60;0.50;;;;;;;;;;5053021;28;20059;-71
2024/03/02 06:48:07;;;;;;;2.00;0.70;;;;;;;;;;5062756;28;20045;-72
2024/03/02 06:50:33;;;;;;;4.53;0.60;;;;;;;;;;5072621;28;20052;-72
2024/03/02 06:53:00;;;;;;;1.95;0.40;;;;;;;;;;5084197;28;20079;-71
2024/03/02 06:55:26;;;;;;;1.75;0.52;;;;;;;;;;5069192;28;20052;-72
2024/03/02 06:57:52;;;;;;;1.88;0.60;;;;;;;;;;5072289;28;20053;-72
2024/03/02 07:00:20;;;;;;;2.05;0.70;;;;;;;;;;5063773;28;20093;-72
2024/03/02 07:02:46;;;;;;;1.83;0.68;;;;;;;;;;5073347;28;20761;-73
2024/03/02 07:05:13;;;;;;;0.82;0.43;;;;;;;;;;5059800;28;20135;-71
2024/03/02 07:07:39;;;;;;;1.38;0.40;;;;;;;;;;5066847;28;20464;-72
2024/03/02 07:10:07;;;;;;;2.35;0.80;;;;;;;;;;5066592;28;20446;-73
2024/03/02 07:12:34;;;;;;;1.15;0.80;;;;;;;;;;5075289;28;20135;-73
2024/03/02 07:17:30;;;;;;;1.80;0.80;;;;;;;;;;5075162;28;20040;-72
2024/03/02 07:19:57;;;;;;;4.75;0.70;;;;;;;;;;5071744;28;20466;-71
2024/03/02 07:22:23;;;;;;;1.17;0.60;;;;;;;;;;5085611;28;20059;-71
2024/03/02 07:24:50;;;;;;;1.13;0.50;;;;;;;;;;5055992;28;20048;-71
2024/03/02 07:27:17;;;;;;;0.65;0.57;;;;;;;;;;5082100;28;20052;-72
2024/03/02 07:29:43;;;;;;;1.80;0.80;;;;;;;;;;5068603;28;20102;-72
2024/03/02 07:32:10;;;;;;;2.58;0.73;;;;;;;;;;5071180;28;20052;-71
2024/03/02 07:34:37;;;;;;;0.60;0.57;;;;;;;;;;5081839;28;20051;-71
2024/03/02 07:37:04;;;;;;;2.90;0.73;;;;;;;;;;5042770;28;20048;-71
2024/03/02 07:39:30;;;;;;;3.72;0.52;;;;;;;;;;5068092;28;20214;-72
2024/03/02 07:41:56;;;;;;;1.77;0.70;;;;;;;;;;5077655;28;20556;-72
2024/03/02 07:44:24;;;;;;;2.70;0.70;;;;;;;;;;5044095;28;20072;-72
2024/03/02 07:46:50;;;;;;;6.72;0.80;;;;;;;;;;5083095;28;20068;-73
2024/03/02 07:49:17;;;;;;;2.13;0.63;;;;;;;;;;5062050;28;20051;-72
2024/03/02 07:51:43;;;;;;;1.17;0.52;;;;;;;;;;5088279;28;20523;-71
2024/03/02 07:54:10;;;;;;;3.65;1.02;;;;;;;;;;5062289;28;20131;-71
2024/03/02 07:56:37;;;;;;;0.98;0.50;;;;;;;;;;5064398;28;20056;-72
2024/03/02 07:59:03;;;;;;;1.33;0.60;;;;;;;;;;5073607;28;20197;-71
2024/03/02 08:01:33;;;;;;;1.65;0.80;;;;;;;;;;5060277;28;20118;-71
2024/03/02 08:04:00;;;;;;;1.15;0.50;;;;;;;;;;5081758;28;20163;-73
2024/03/02 08:06:30;;;;;;;3.28;0.68;;;;;;;;;;5079677;28;20404;-72
2024/03/02 08:08:57;;;;;;;4.18;1.05;;;;;;;;;;5094889;28;20673;-72
2024/03/02 08:11:23;;;;;;;3.65;1.13;;;;;;;;;;5074885;28;20052;-72
2024/03/02 08:13:51;;;;;;;0.88;0.57;;;;;;;;;;5074704;28;20370;-71
2024/03/02 08:16:19;;;;;;;2.23;0.80;;;;;;;;;;5075808;28;20056;-72
2024/03/02 08:18:49;;;;;;;2.58;0.70;;;;;;;;;;5060788;28;20523;-72
2024/03/02 08:21:16;;;;;;;2.97;1.10;;;;;;;;;;5071363;28;20056;-72
2024/03/02 08:23:42;;;;;;;2.78;0.80;;;;;;;;;;5070703;28;20164;-71
2024/03/02 08:26:10;;;;;;;1.63;0.73;;;;;;;;;;5079340;28;20401;-72
2024/03/02 08:28:37;;;;;;;2.58;0.70;;;;;;;;;;5081671;28;20040;-73
2024/03/02 08:31:03;;;;;;;1.35;0.60;;;;;;;;;;5082025;28;20143;-71
2024/03/02 08:33:30;;;;;;;1.20;0.55;;;;;;;;;;5067027;28;20040;-72
2024/03/02 08:35:57;;;;;;;2.42;0.57;;;;;;;;;;5056850;28;20052;-72
2024/03/02 08:38:24;;;;;;;3.88;0.90;;;;;;;;;;5056726;28;20044;-71
2024/03/02 08:40:51;;;;;;;3.63;1.00;;;;;;;;;;5053593;28;20043;-73
2024/03/02 08:43:18;;;;;;;2.05;0.50;;;;;;;;;;5068166;28;20120;-72
2024/03/02 08:45:44;;;;;;;3.42;0.60;;;;;;;;;;5081328;28;20072;-72
2024/03/02 08:48:11;;;;;;;6.28;0.80;;;;;;;;;;5068503;28;20515;-71
2024/03/02 08:50:37;;;;;;;4.90;0.82;;;;;;;;;;5077621;28;20051;-73
2024/03/02 08:53:04;;;;;;;1.75;0.77;;;;;;;;;;5048441;28;20053;-72
2024/03/02 08:55:30;;;;;;;3.95;1.02;;;;;;;;;;5064704;28;20135;-72
2024/03/02 08:57:57;;;;;;;3.47;0.80;;;;;;;;;;5081328;28;20059;-72
2024/03/02 09:00:24;;;;;;;3.45;0.73;;;;;;;;;;5076915;28;20054;-72
2024/03/02 09:02:50;;;;;;;4.50;0.80;;;;;;;;;;5083373;28;20044;-71
2024/03/02 09:05:17;;;;;;;1.58;0.70;;;;;;;;;;5075816;28;20170;-72
2024/03/02 09:07:43;;;;;;;2.38;0.90;;;;;;;;;;5083117;28;20105;-72
2024/03/02 09:10:09;;;;;;;1.90;0.68;;;;;;;;;;5068059;28;20098;-72
2024/03/02 09:12:37;;;;;;;4.07;0.80;;;;;;;;;;5073262;28;20606;-73
2024/03/02 09:15:04;;;;;;;3.03;0.80;;;;;;;;;;5079600;28;20056;-72
2024/03/02 09:17:30;;;;;;;5.43;0.80;;;;;;;;;;5072449;28;20397;-71
2024/03/02 09:19:57;;;;;;;3.53;1.10;;;;;;;;;;5076516;28;20057;-72
2024/03/02 09:22:23;;;;;;;3.63;0.88;;;;;;;;;;5074400;28;20048;-72
2024/03/02 09:24:50;;;;;;;4.45;0.70;;;;;;;;;;5078481;28;20097;-72
2024/03/02 09:27:16;;;;;;;3.42;0.82;;;;;;;;;;5075459;28;20063;-71
2024/03/02 09:29:42;;;;;;;2.78;0.60;;;;;;;;;;5074472;28;20041;-70
2024/03/02 09:32:12;;;;;;;3.97;0.80;;;;;;;;;;5081581;28;20048;-71
2024/03/02 09:34:38;;;;;;;3.28;1.00;;;;;;;;;;5070103;28;20041;-72
2024/03/02 09:37:05;;;;;;;3.85;0.85;;;;;;;;;;5067513;28;20072;-70
2024/03/02 09:39:31;;;;;;;3.58;1.15;;;;;;;;;;5075570;28;20044;-71
2024/03/02 09:41:58;;;;;;;6.75;1.35;;;;;;;;;;5075260;28;20048;-71
2024/03/02 09:44:25;;;;;;;4.60;0.93;;;;;;;;;;5082414;28;20585;-70
2024/03/02 09:46:52;;;;;;;2.08;0.68;;;;;;;;;;5079585;28;20113;-69
2024/03/02 09:49:18;;;;;;;2.80;0.80;;;;;;;;;;5079850;28;20070;-72
2024/03/02 09:51:46;;;;;;;2.65;0.80;;;;;;;;;;5071489;28;20057;-71
2024/03/02 09:54:13;;;;;;;4.03;0.90;;;;;;;;;;5080851;28;20101;-71
2024/03/02 09:56:49;;;;;;;3.10;0.85;;;;;;;;;;5082413;28;20055;-71
2024/03/02 09:59:17;;;;;;;6.22;0.98;;;;;;;;;;5069090;28;20075;-71
2024/03/02 10:01:58;;;;;;;3.28;0.70;;;;;;;;;;5068183;28;20550;-71
2024/03/02 10:04:25;;;;;;;4.68;0.80;;;;;;;;;;5064418;28;20045;-71
2024/03/02 10:07:08;;;;;;;4.78;0.85;;;;;;;;;;5074813;28;20057;-69
2024/03/02 10:09:35;;;;;;;3.38;0.70;;;;;;;;;;5065141;28;20044;-70
2024/03/02 10:12:03;;;;;;;3.38;0.70;;;;;;;;;;5072495;28;20181;-70
2024/03/02 10:14:30;;;;;;;5.45;1.40;;;;;;;;;;5083696;28;20108;-71
2024/03/02 10:17:02;;;;;;;5.03;0.75;;;;;;;;;;5069492;28;20473;-70
2024/03/02 10:19:32;;;;;;;2.70;0.73;;;;;;;;;;5062738;28;20099;-73
2024/03/02 10:21:59;;;;;;;3.80;0.70;;;;;;;;;;5071670;28;20053;-72
2024/03/02 10:24:44;;;;;;;2.05;0.60;;;;;;;;;;5071661;28;20135;-72
2024/03/02 10:27:14;;;;;;;4.57;1.00;;;;;;;;;;5059254;28;20712;-71
2024/03/02 10:29:41;;;;;;;5.13;0.50;;;;;;;;;;5065832;28;20052;-70
2024/03/02 10:32:11;;;;;;;1.13;0.40;;;;;;;;;;5081218;28;20054;-71
2024/03/02 10:34:41;;;;;;;3.25;0.60;;;;;;;;;;5076548;28;20735;-71
2024/03/02 10:37:08;;;;;;;1.27;0.50;;;;;;;;;;5073366;28;20693;-72
2024/03/02 10:39:39;;;;;;;2.75;0.82;;;;;;;;;;5071338;28;20410;-70
2024/03/02 10:42:07;;;;;;;1.35;0.52;;;;;;;;;;5077603;28;20105;-71
2024/03/02 10:44:34;;;;;;;2.28;0.70;;;;;;;;;;5066332;28;20823;-71
2024/03/02 10:47:03;;;;;;;1.55;0.57;;;;;;;;;;5083279;28;20500;-70
2024/03/02 10:49:31;;;;;;;2.70;0.60;;;;;;;;;;5078776;28;20056;-71
2024/03/02 10:51:58;;;;;;;3.72;0.70;;;;;;;;;;5076174;28;20097;-71
2024/03/02 10:54:29;;;;;;;3.83;0.85;;;;;;;;;;5056401;28;20531;-70
2024/03/02 10:56:57;;;;;;;2.55;0.60;;;;;;;;;;5064303;28;20136;-71
2024/03/02 10:59:27;;;;;;;2.92;0.63;;;;;;;;;;5049394;28;20048;-72
2024/03/02 11:02:01;;;;;;;5.38;0.68;;;;;;;;;;5069027;28;20064;-72
2024/03/02 11:04:31;;;;;;;5.38;0.70;;;;;;;;;;5064355;28;20180;-71
2024/03/02 11:07:09;;;;;;;1.75;0.50;;;;;;;;;;5067786;28;20063;-70
2024/03/02 11:09:47;;;;;;;1.85;0.80;;;;;;;;;;5067413;28;20140;-70
2024/03/02 11:12:22;;;;;;;3.25;1.00;;;;;;;;;;5079189;28;20051;-71
2024/03/02 11:14:51;;;;;;;1.63;0.60;;;;;;;;;;5076849;28;20040;-72
2024/03/02 11:17:18;;;;;;;3.97;0.85;;;;;;;;;;5097745;27;20048;-71
2024/03/02 11:19:45;;;;;;;1.58;0.63;;;;;;;;;;5037174;28;20094;-71
2024/03/02 11:22:12;;;;;;;4.63;1.33;;;;;;;;;;5067357;28;20040;-71
2024/03/02 11:24:38;;;;;;;1.95;0.90;;;;;;;;;;5077038;28;20064;-71
2024/03/02 11:27:07;;;;;;;3.00;0.90;;;;;;;;;;5064508;28;20102;-71
2024/03/02 11:29:37;;;;;;;2.58;0.80;;;;;;;;;;5068985;28;20052;-71
2024/03/02 11:32:05;;;;;;;2.83;0.63;;;;;;;;;;5070429;28;20423;-70
2024/03/02 11:34:35;;;;;;;2.85;0.52;;;;;;;;;;5081520;28;20147;-71
2024/03/02 11:37:02;;;;;;;4.85;0.98;;;;;;;;;;5058514;28;20071;-72
2024/03/02 11:39:28;;;;;;;2.72;0.93;;;;;;;;;;5056123;28;20117;-71
2024/03/02 11:41:55;;;;;;;1.90;1.08;;;;;;;;;;5073483;28;20063;-71
2024/03/02 11:44:22;;;;;;;3.50;0.68;;;;;;;;;;5058302;28;20105;-72
2024/03/02 11:46:53;;;;;;;1.67;0.73;;;;;;;;;;5061960;28;20148;-72
2024/03/02 11:49:38;;;;;;;2.65;0.70;;;;;;;;;;5074142;28;20136;-69
2024/03/02 11:52:09;;;;;;;2.25;0.80;;;;;;;;;;5087846;28;20040;-70
2024/03/02 11:54:39;;;;;;;3.80;1.25;;;;;;;;;;5070444;28;20101;-69
2024/03/02 11:57:09;;;;;;;4.55;1.20;;;;;;;;;;5072540;28;20076;-71
2024/03/02 11:59:35;;;;;;;1.70;0.68;;;;;;;;;;5079563;28;20385;-70
2024/03/02 12:02:02;;;;;;;1.98;0.60;;;;;;;;;;5040050;28;20049;-71
2024/03/02 12:04:29;;;;;;;2.70;0.73;;;;;;;;;;5067044;28;20512;-71
2024/03/02 12:07:00;;;;;;;4.38;0.93;;;;;;;;;;5063889;28;20385;-69
2024/03/02 12:09:27;;;;;;;3.00;0.68;;;;;;;;;;5068329;28;20067;-70
2024/03/02 12:12:03;;;;;;;2.47;0.65;;;;;;;;;;5082950;28;20752;-69
2024/03/02 12:14:30;;;;;;;2.38;0.70;;;;;;;;;;5060583;28;20048;-70
2024/03/02 12:16:58;;;;;;;3.53;1.05;;;;;;;;;;5075335;28;20164;-72
2024/03/02 12:19:26;;;;;;;2.72;0.73;;;;;;;;;;5082097;28;20480;-72
2024/03/02 12:21:53;;;;;;;2.27;0.60;;;;;;;;;;5085806;28;20382;-70
2024/03/02 12:24:20;;;;;;;2.53;0.60;;;;;;;;;;5059108;28;20108;-72
2024/03/02 12:26:48;;;;;;;2.20;0.60;;;;;;;;;;5084163;28;20044;-71
2024/03/02 12:29:15;;;;;;;5.30;0.75;;;;;;;;;;5072844;28;20393;-72
2024/03/02 12:31:45;;;;;;;2.15;0.68;;;;;;;;;;5069985;28;20496;-72
2024/03/02 12:34:13;;;;;;;2.03;0.70;;;;;;;;;;5080093;28;20067;-72
2024/03/02 12:36:41;;;;;;;4.72;0.90;;;;;;;;;;5070510;28;20564;-72
2024/03/02 12:39:11;;;;;;;2.50;0.60;;;;;;;;;;5077628;28;20172;-72
2024/03/02 12:41:37;;;;;;;2.03;0.70;;;;;;;;;;5064667;28;20532;-71
2024/03/02 12:44:04;;;;;;;1.65;0.73;;;;;;;;;;5067176;28;20063;-72
2024/03/02 12:46:32;;;;;;;3.50;0.90;;;;;;;;;;5076426;28;20044;-72
2024/03/02 12:48:59;;;;;;;2.42;0.73;;;;;;;;;;5080084;28;20051;-73
2024/03/02 12:51:26;;;;;;;3.00;0.77;;;;;;;;;;5081557;28;20078;-70
2024/03/02 12:53:56;;;;;;;1.55;0.65;;;;;;;;;;5076689;28;20119;-72
2024/03/02 12:56:23;;;;;;;3.17;0.80;;;;;;;;;;5068312;28;20089;-73
2024/03/02 12:58:53;;;;;;;2.65;0.90;;;;;;;;;;5069528;28;20496;-74
2024/03/02 13:01:19;;;;;;;3.10;0.77;;;;;;;;;;5060251;28;20124;-73
2024/03/02 13:03:52;;;;;;;3.33;0.80;;;;;;;;;;5059978;28;20133;-72
2024/03/02 13:06:19;;;;;;;1.85;0.70;;;;;;;;;;5063335;28;20055;-72
2024/03/02 13:08:49;;;;;;;3.03;0.88;;;;;;;;;;5065493;28;20059;-72
2024/03/02 13:11:16;;;;;;;2.55;0.82;;;;;;;;;;5076267;28;20052;-71
2024/03/02 13:13:42;;;;;;;2.75;1.00;;;;;;;;;;5061459;28;20079;-73
2024/03/02 13:16:16;;;;;;;1.70;0.90;;;;;;;;;;5058722;28;20131;-72
2024/03/02 13:18:44;;;;;;;2.70;1.08;;;;;;;;;;5085076;28;20218;-72
2024/03/02 13:21:11;;;;;;;2.30;1.08;;;;;;;;;;5062777;28;20056;-74
2024/03/02 13:23:38;;;;;;;2.58;1.00;;;;;;;;;;5056888;28;20113;-73
2024/03/02 13:26:04;;;;;;;3.90;0.90;;;;;;;;;;5060497;28;20048;-72
2024/03/02 13:28:31;;;;;;;2.70;0.90;;;;;;;;;;5080556;28;20048;-73
2024/03/02 13:30:58;;;;;;;3.83;1.17;;;;;;;;;;5076132;28;20055;-72
2024/03/02 13:33:24;;;;;;;3.10;0.95;;;;;;;;;;5072333;28;20056;-71
2024/03/02 13:35:51;;;;;;;2.95;1.00;;;;;;;;;;5053655;28;20040;-72
2024/03/02 13:38:18;;;;;;;3.58;1.25;;;;;;;;;;5096760;28;20428;-71
2024/03/02 13:40:45;;;;;;;4.10;1.10;;;;;;;;;;5069455;28;20044;-73
2024/03/02 13:43:12;;;;;;;4.65;1.35;;;;;;;;;;5087883;28;20082;-72
2024/03/02 13:45:39;;;;;;;1.80;0.90;;;;;;;;;;5071780;28;20045;-72
2024/03/02 13:48:05;;;;;;;2.53;0.90;;;;;;;;;;5068930;28;20051;-72
2024/03/02 13:50:32;;;;;;;2.45;1.00;;;;;;;;;;5078216;28;20076;-73
2024/03/02 13:52:58;;;;;;;3.47;1.00;;;;;;;;;;5079636;28;20102;-73
2024/03/02 13:55:25;;;;;;;2.85;1.17;;;;;;;;;;5061163;28;20056;-72
2024/03/02 13:57:51;;;;;;;4.38;1.15;;;;;;;;;;5065502;28;20048;-72
2024/03/02 14:00:18;;;;;;;1.88;0.90;;;;;;;;;;5075998;28;20087;-72
2024/03/02 14:02:45;;;;;;;6.10;1.83;;;;;;;;;;5079351;28;20594;-71
2024/03/02 14:05:13;;;;;;;2.83;0.80;;;;;;;;;;5064791;28;20060;-72
2024/03/02 14:07:44;;;;;;;3.15;0.88;;;;;;;;;;5062339;28;20451;-71
2024/03/02 14:10:10;;;;;;;2.33;0.90;;;;;;;;;;5066091;28;20056;-72
2024/03/02 14:12:37;;;;;;;4.13;1.02;;;;;;;;;;5073821;28;20880;-73
2024/03/02 14:15:04;;;;;;;3.63;1.13;;;;;;;;;;5084915;28;20048;-72
2024/03/02 14:17:33;;;;;;;3.00;0.82;;;;;;;;;;5079198;28;20128;-71
2024/03/02 14:19:59;;;;;;;3.20;1.02;;;;;;;;;;5085556;28;20530;-71
2024/03/02 14:22:26;;;;;;;4.07;1.10;;;;;;;;;;5080766;28;20063;-71
2024/03/02 14:24:52;;;;;;;5.07;0.85;;;;;;;;;;5080249;28;20155;-72
2024/03/02 14:27:19;;;;;;;4.18;1.00;;;;;;;;;;5083494;28;20270;-73
2024/03/02 14:30:05;;;;;;;5.80;1.08;;;;;;;;;;5060173;28;20075;-72
2024/03/02 14:32:31;;;;;;;3.83;0.98;;;;;;;;;;5077467;28;20094;-72
2024/03/02 14:34:58;;;;;;;4.57;0.90;;;;;;;;;;5055663;28;20056;-72
2024/03/02 14:37:24;;;;;;;2.40;0.80;;;;;;;;;;5063974;28;20060;-73
2024/03/02 14:39:51;;;;;;;3.60;0.80;;;;;;;;;;5065071;28;20044;-72
2024/03/02 14:42:17;;;;;;;2.80;0.98;;;;;;;;;;5046558;28;20059;-71
2024/03/02 14:44:44;;;;;;;3.60;0.80;;;;;;;;;;5077926;28;20106;-71
2024/03/02 14:47:10;;;;;;;3.17;1.25;;;;;;;;;;5054829;28;20053;-72
2024/03/02 14:49:40;;;;;;;3.42;0.88;;;;;;;;;;5053143;28;20145;-73
2024/03/02 14:52:07;;;;;;;2.05;0.70;;;;;;;;;;5076594;28;20550;-72